Joaquin, Texas
Current Conditions -  °F | °C
As of 3:56 AM on Sunday 25 Jan 2015 (Local Time) from KSHV Reporting Station
Clear Clear  
Wind Chill:   Ceiling: Unl
Heat Index:   Visibility: 10mi
Dew Point:   Wind: 3mph
Humidity: 82%   Direction: 170°S
Pressure: 29.94"   Gusts: NA
Location:  31.97°N, 94.05°W
Report Text: KSHV 250956Z 17003KT 10SM CLR 03/00 A2994 RMK AO2 SLP139 T00280000
Loading
Personal Weather Stations






























Interactive Weather Map New forecast layout! Learn more

10-Day Weather Forecast

Advertisements
Track Severe Weather on mobile